Hlavní strana
METAR-TAF:

METAR-TAF

Letiště :

Fudžajra, Spojené arabské emiráty

zeměpisná šířka: 25-06N, zeměpisná délka: 056-20E, výška: 28 m

Aktuální stav počasí

Zpráva byla vytvořena před 1 hodinou a 4 minutami, v 14:00 UTC
Západoseverozápadní vítr 19 kt, proměnlivý mezi západním a severoseverozápadním
Teplota 24°C
Vlhkost vzduchu 34%
Tlak 1012 hPa
Viditelnost: 6000 m

METAR: OMFJ 191400Z 30019KT 270V330 6000 NSC 24/07 Q1012 RMK A2989

Čas: 19:04 (15:04 UTC)

Předpověď počasí

Zpráva byla vytvořena před 4 hodinami a 4 minutami, v 11:00 UTC
Předpověď platná od 19 v 12 UTC do 20 v 18 UTC
Západoseverozápadní vítr 18 kt
Viditelnost: 6000 m
Pravděpodobnost 40% :
Dočasný
od 19 v 12 UTC do 19 v 20 UTC
Západoseverozápadní vítr 20 kt s nárazy do 35 kt
Viditelnost: 3000 m
zvířený prach

TAF: OMFJ 191100Z 1912/2018 29018KT 6000 NSC PROB40 TEMPO 1912/1920 30020G35KT 3000 BLDU

Stav a předpovědi počasí z více než 4 000 letišť (zprávy METAR a TAF).

Červené a žluté tečky na mapě představují dostupné meteorologické stanice.

Když kurzor umístíte na tečku, zobrazí se název stanice.

Pak kliknutím zobrazíte stav a předpověď počasí.

Chcete-li změnit mapu, kliknutím na zelené tlačítko se znaménkem +mapu přiblížíte, kliknutím na zelené tlačítko se znaménkem – mapu oddálíte a kliknutím na zelené šipky přejdete na sousední mapy.


METAR-TAF: